Hauptseite
METAR-TAF:

METAR-TAF

Flughäfen :

Bückeburg, Deutschland

Heeresflugplatz Bückeburg

Breite: 52-17N, Länge: 009-05E, Höhe: 70 m

Beobachtung

Neuester Wetterbericht von vor 10 Minuten, um 08:20 UTC
Wind 15 kt aus West/Südwest
Temperatur 6°C
Luftfeuchtigkeit 70%
Luftdruck 1017 hPa
Sichtweite 10 km oder mehr

METAR: ETHB 180820Z AUTO 25015KT 9999 // ////// 06/01 Q1017 ///

Zeit: 09:30 (08:30 UTC)

Prognose

Neuester Wetterbericht von vor 21 Stunden und 32 Minuten, um 10:58 UTC
Gültige Prognose vom 17 um 09 UTC bis 17 um 18 UTC
Wind 5 kt aus West
Sichtweite: 1100 m
Aufgelockert bewölkt in der Höhe von 3000 ft

TAF: ETHB 171058Z 1709/1718 27005KT 9999 NSW SCT030 CANCEL 1100

Wetterbeobachtungen und Prognosen von mehr als 4000 Flughäfen (METAR und TAF Bericht).

Die verfügbaren Stationen werden durch gelbe und rote Markierungen auf der Karte dargestellt.

Führen Sie die Maus auf sie, um den Namen der Station zu sehen.

Darauf klicken, um die Beobachtung von Wetterbeobachtungen und Prognosen zu sehen.

Um die Karte zu ändern : klicken Sie auf den grünen Tasten mit einem schwarzen Kreuz Zum Vergrößern, auf den grünen Button mit einem Gedankenstrich zu verkleinern, oder auf die grünen Pfeile für benachbarte Karten.


METAR-TAF: